Time;durP1;ratioP1;P1;durP2;ratioP2;P2;SDS_P1;SDS_P2;PMS_P1;PMS_P2;Temp;Humidity;BMP_temperature;BMP_pressure;BME280_temperature;BME280_humidity;BME280_pressure;Samples;Min_cycle;Max_cycle;Signal;HPM_P1;HPM_P2
2024/02/26 00:02:19;;;;;;;0.50;0.50;;;;;;;6.08;96.61;97423.28;5032905;28;20128;-58
2024/02/26 00:04:46;;;;;;;0.40;0.40;;;;;;;5.82;100.00;97423.09;5036140;28;20111;-58
2024/02/26 00:07:14;;;;;;;0.50;0.50;;;;;;;5.82;100.00;97423.09;5037122;28;20148;-58
2024/02/26 00:09:41;;;;;;;0.30;0.30;;;;;;;5.74;100.00;97415.59;5036493;28;20056;-58
2024/02/26 00:12:08;;;;;;;0.40;0.40;;;;;;;5.83;100.00;97416.72;5034698;28;20033;-58
2024/02/26 00:14:36;;;;;;;0.32;0.32;;;;;;;6.04;97.11;97415.03;5043733;28;20072;-59
2024/02/26 00:17:03;;;;;;;0.30;0.30;;;;;;;6.13;96.81;97419.84;5042062;28;20079;-58
2024/02/26 00:19:30;;;;;;;0.40;0.40;;;;;;;6.21;96.51;97414.84;5036506;28;20095;-58
2024/02/26 00:21:57;;;;;;;0.40;0.40;;;;;;;6.11;98.97;97416.66;5031634;28;20140;-59
2024/02/26 00:24:26;;;;;;;0.40;0.40;;;;;;;6.11;98.13;97416.66;5030403;28;20132;-59
2024/02/26 00:26:54;;;;;;;0.40;0.40;;;;;;;6.23;96.04;97409.28;5035986;28;20051;-58
2024/02/26 00:29:25;;;;;;;0.43;0.43;;;;;;;6.13;96.65;97415.34;5036624;28;20045;-59
2024/02/26 00:31:52;;;;;;;0.30;0.30;;;;;;;6.22;96.64;97408.47;5035604;28;20046;-59
2024/02/26 00:34:22;;;;;;;0.47;0.47;;;;;;;6.29;94.59;97402.09;5029673;28;20869;-59
2024/02/26 00:36:49;;;;;;;0.40;0.40;;;;;;;6.23;95.21;97395.97;5028427;28;20064;-59
2024/02/26 00:39:16;;;;;;;0.40;0.40;;;;;;;6.20;96.62;97394.63;5036419;28;20071;-59
2024/02/26 00:41:45;;;;;;;0.40;0.40;;;;;;;6.15;96.96;97393.81;5033813;28;20102;-59
2024/02/26 00:44:12;;;;;;;0.40;0.40;;;;;;;6.14;96.20;97395.69;5029823;28;20128;-59
2024/02/26 00:46:39;;;;;;;0.40;0.40;;;;;;;6.22;96.26;97397.84;5029660;28;20056;-59
2024/02/26 00:49:06;;;;;;;0.40;0.40;;;;;;;6.28;96.21;97396.00;5028909;28;20144;-58
2024/02/26 00:51:33;;;;;;;0.32;0.32;;;;;;;6.05;98.64;97394.56;5032819;28;20133;-59
2024/02/26 00:54:00;;;;;;;0.40;0.40;;;;;;;5.80;100.00;97392.50;5038421;28;20134;-59
2024/02/26 00:56:28;;;;;;;0.40;0.40;;;;;;;5.92;100.00;97402.97;5030610;28;20061;-58
2024/02/26 00:58:56;;;;;;;0.40;0.40;;;;;;;5.89;100.00;97398.97;5036509;28;20045;-58
2024/02/26 01:01:23;;;;;;;0.40;0.40;;;;;;;5.79;100.00;97407.66;5026261;28;20050;-59
2024/02/26 01:03:50;;;;;;;0.30;0.30;;;;;;;5.82;100.00;97401.03;5026138;28;20566;-58
2024/02/26 01:06:17;;;;;;;0.30;0.30;;;;;;;5.93;100.00;97393.91;5031457;28;22265;-59
2024/02/26 01:08:45;;;;;;;0.40;0.40;;;;;;;5.83;100.00;97402.63;5035008;28;20037;-59
2024/02/26 01:11:12;;;;;;;0.40;0.40;;;;;;;5.72;100.00;97398.31;5028550;28;20055;-59
2024/02/26 01:13:39;;;;;;;0.50;0.50;;;;;;;5.65;100.00;97406.50;5028888;28;20057;-59
2024/02/26 01:16:07;;;;;;;0.32;0.32;;;;;;;5.77;100.00;97401.81;5025308;28;20045;-58
2024/02/26 01:18:34;;;;;;;0.28;0.28;;;;;;;5.64;100.00;97396.91;5037952;28;20546;-59
2024/02/26 01:21:01;;;;;;;0.32;0.32;;;;;;;6.00;100.00;97390.00;5031814;28;20506;-59
2024/02/26 01:23:28;;;;;;;0.40;0.40;;;;;;;5.94;100.00;97387.56;5032631;28;20073;-59
2024/02/26 01:25:58;;;;;;;0.50;0.50;;;;;;;5.94;99.81;97380.41;5027077;28;20049;-60
2024/02/26 01:28:25;;;;;;;0.50;0.50;;;;;;;5.98;100.00;97384.13;5029810;28;20057;-58
2024/02/26 01:30:52;;;;;;;0.40;0.40;;;;;;;6.18;98.38;97380.78;5027468;28;20542;-58
2024/02/26 01:33:21;;;;;;;0.40;0.40;;;;;;;6.25;95.99;97368.03;5036322;28;20151;-58
2024/02/26 01:35:48;;;;;;;0.40;0.40;;;;;;;6.21;95.24;97369.59;5030022;28;20045;-58
2024/02/26 01:38:15;;;;;;;0.35;0.35;;;;;;;6.16;93.99;97350.97;5031615;28;20072;-59
2024/02/26 01:40:42;;;;;;;0.40;0.40;;;;;;;6.25;94.53;97359.28;5031308;28;20045;-58
2024/02/26 01:43:10;;;;;;;0.40;0.40;;;;;;;6.24;92.23;97353.16;5027079;28;20765;-58
2024/02/26 01:45:36;;;;;;;0.40;0.40;;;;;;;6.23;92.57;97351.53;5021532;28;20562;-59
2024/02/26 01:48:04;;;;;;;0.35;0.35;;;;;;;6.27;92.04;97357.16;5034867;28;20056;-58
2024/02/26 01:50:34;;;;;;;0.40;0.40;;;;;;;6.40;90.31;97369.97;5037079;28;20130;-58
2024/02/26 01:53:01;;;;;;;0.50;0.50;;;;;;;6.40;90.58;97371.84;5025674;28;20111;-58
2024/02/26 01:55:28;;;;;;;0.50;0.50;;;;;;;6.39;88.71;97371.03;5033953;28;20053;-58
2024/02/26 01:57:55;;;;;;;0.50;0.50;;;;;;;6.36;88.63;97394.69;5028178;28;20259;-58
2024/02/26 02:00:22;;;;;;;0.40;0.40;;;;;;;6.30;90.38;97407.19;5028996;28;20088;-58
2024/02/26 02:02:50;;;;;;;0.40;0.40;;;;;;;6.26;90.49;97409.56;5030329;28;20045;-58
2024/02/26 02:05:18;;;;;;;0.40;0.40;;;;;;;6.26;90.84;97420.22;5032607;28;20063;-59
2024/02/26 02:07:48;;;;;;;0.40;0.40;;;;;;;6.30;91.24;97414.38;5027538;28;20482;-58
2024/02/26 02:10:15;;;;;;;0.40;0.40;;;;;;;6.26;91.62;97420.22;5039468;28;20045;-58
2024/02/26 02:12:42;;;;;;;0.35;0.35;;;;;;;6.28;92.90;97419.13;5023534;28;20144;-58
2024/02/26 02:15:09;;;;;;;0.40;0.40;;;;;;;6.24;93.99;97413.53;5032225;28;20132;-58
2024/02/26 02:17:36;;;;;;;0.40;0.40;;;;;;;6.05;96.91;97413.97;5035983;28;20503;-58
2024/02/26 02:20:03;;;;;;;0.40;0.40;;;;;;;6.01;99.06;97409.41;5036502;28;20770;-58
2024/02/26 02:22:33;;;;;;;0.40;0.40;;;;;;;5.92;100.00;97413.59;5029848;28;20564;-58
2024/02/26 02:25:00;;;;;;;0.30;0.30;;;;;;;5.86;100.00;97407.44;5031367;28;20041;-58
2024/02/26 02:27:27;;;;;;;0.40;0.40;;;;;;;5.97;100.00;97408.34;5032697;28;20087;-58
2024/02/26 02:29:54;;;;;;;0.40;0.40;;;;;;;5.88;100.00;97407.97;5036972;28;20938;-58
2024/02/26 02:32:21;;;;;;;0.40;0.40;;;;;;;5.77;100.00;97416.97;5042502;28;20044;-58
2024/02/26 02:34:48;;;;;;;0.40;0.40;;;;;;;5.74;100.00;97412.94;5031780;28;20048;-58
2024/02/26 02:37:15;;;;;;;0.32;0.32;;;;;;;5.63;100.00;97412.06;5034845;28;20128;-58
2024/02/26 02:39:44;;;;;;;0.40;0.40;;;;;;;5.70;100.00;97408.41;5038853;28;20045;-58
2024/02/26 02:42:12;;;;;;;0.40;0.40;;;;;;;5.84;100.00;97407.69;5027756;28;20635;-58
2024/02/26 02:44:39;;;;;;;0.40;0.40;;;;;;;5.85;100.00;97408.50;5033023;28;20119;-58
2024/02/26 02:47:06;;;;;;;0.40;0.40;;;;;;;5.90;100.00;97413.06;5030477;28;20523;-58
2024/02/26 02:49:33;;;;;;;0.40;0.40;;;;;;;6.08;100.00;97427.81;5032447;28;20538;-59
2024/02/26 02:52:00;;;;;;;0.30;0.30;;;;;;;5.98;100.00;97423.22;5030967;28;20119;-58
2024/02/26 02:54:27;;;;;;;0.30;0.30;;;;;;;5.92;100.00;97414.41;5027914;28;20069;-58
2024/02/26 02:56:56;;;;;;;0.40;0.40;;;;;;;5.88;100.00;97423.13;5033226;28;20533;-57
2024/02/26 02:59:23;;;;;;;0.50;0.50;;;;;;;5.74;100.00;97418.25;5053847;28;20103;-58
2024/02/26 03:01:50;;;;;;;0.50;0.50;;;;;;;5.71;100.00;97416.09;5028588;28;20448;-58
2024/02/26 03:04:17;;;;;;;0.40;0.40;;;;;;;5.72;100.00;97409.75;5034193;28;20049;-58
2024/02/26 03:06:44;;;;;;;0.28;0.28;;;;;;;5.81;100.00;97407.41;5025738;28;20050;-58
2024/02/26 03:09:11;;;;;;;0.30;0.30;;;;;;;5.79;100.00;97412.97;5033313;28;20072;-59
2024/02/26 03:11:38;;;;;;;0.40;0.40;;;;;;;5.58;100.00;97413.88;5028438;28;20060;-58
2024/02/26 03:14:07;;;;;;;0.30;0.30;;;;;;;5.60;100.00;97415.22;5027683;28;20123;-58
2024/02/26 03:16:34;;;;;;;0.40;0.40;;;;;;;5.68;100.00;97413.94;5032976;28;20768;-58
2024/02/26 03:19:01;;;;;;;0.50;0.50;;;;;;;5.63;100.00;97417.38;5039793;28;20091;-59
2024/02/26 03:21:28;;;;;;;0.40;0.40;;;;;;;5.62;100.00;97415.78;5037175;28;20045;-58
2024/02/26 03:23:55;;;;;;;0.50;0.50;;;;;;;5.76;100.00;97410.81;5041541;28;20484;-58
2024/02/26 03:26:22;;;;;;;0.30;0.30;;;;;;;5.70;100.00;97403.88;5035129;28;20212;-58
2024/02/26 03:28:49;;;;;;;0.43;0.43;;;;;;;5.63;100.00;97408.59;5032430;28;20504;-58
2024/02/26 03:31:17;;;;;;;0.50;0.50;;;;;;;5.53;100.00;97398.69;5035717;28;20064;-59
2024/02/26 03:33:44;;;;;;;0.50;0.50;;;;;;;5.65;100.00;97403.84;5035000;28;20414;-58
2024/02/26 03:36:11;;;;;;;0.40;0.40;;;;;;;5.49;100.00;97399.44;5032045;28;20136;-58
2024/02/26 03:38:38;;;;;;;0.40;0.40;;;;;;;5.36;100.00;97401.47;5030686;28;20049;-58
2024/02/26 03:41:05;;;;;;;0.40;0.40;;;;;;;5.47;100.00;97398.94;5027406;28;20684;-58
2024/02/26 03:43:33;;;;;;;0.30;0.30;;;;;;;5.48;100.00;97403.19;5029571;28;20048;-58
2024/02/26 03:46:00;;;;;;;0.40;0.40;;;;;;;5.37;100.00;97403.09;5034398;28;20622;-58
2024/02/26 03:48:28;;;;;;;0.50;0.50;;;;;;;5.49;100.00;97407.41;5034750;28;20386;-58
2024/02/26 03:50:55;;;;;;;0.40;0.40;;;;;;;5.47;100.00;97404.25;5036266;28;20132;-58
2024/02/26 03:53:22;;;;;;;0.50;0.50;;;;;;;5.44;100.00;97410.03;5031686;28;20553;-58
2024/02/26 03:55:51;;;;;;;0.40;0.40;;;;;;;5.25;100.00;97409.63;5029358;28;20038;-58
2024/02/26 03:58:18;;;;;;;0.50;0.50;;;;;;;5.32;100.00;97411.03;5032512;28;20103;-58
2024/02/26 04:00:47;;;;;;;0.40;0.40;;;;;;;5.05;100.00;97421.66;5031924;28;20045;-58
2024/02/26 04:03:14;;;;;;;0.40;0.40;;;;;;;5.21;100.00;97419.94;5027218;28;20052;-58
2024/02/26 04:05:42;;;;;;;0.50;0.50;;;;;;;5.08;100.00;97417.69;5030320;28;20041;-58
2024/02/26 04:08:10;;;;;;;0.50;0.50;;;;;;;5.14;100.00;97424.66;5031013;28;20517;-58
2024/02/26 04:10:39;;;;;;;0.50;0.50;;;;;;;5.05;100.00;97426.19;5033570;28;20057;-58
2024/02/26 04:13:06;;;;;;;0.50;0.50;;;;;;;5.22;100.00;97420.75;5027171;28;20531;-58
2024/02/26 04:15:33;;;;;;;0.50;0.50;;;;;;;5.27;100.00;97413.63;5027484;28;20041;-58
2024/02/26 04:18:00;;;;;;;0.45;0.45;;;;;;;5.09;100.00;97414.81;5031708;28;20129;-58
2024/02/26 04:20:27;;;;;;;0.45;0.45;;;;;;;5.24;100.00;97419.47;5035229;28;20124;-58
2024/02/26 04:22:55;;;;;;;0.40;0.40;;;;;;;5.25;100.00;97426.38;5014144;28;20736;-58
2024/02/26 04:25:22;;;;;;;0.43;0.43;;;;;;;5.24;100.00;97415.97;5033767;28;20051;-59
2024/02/26 04:27:49;;;;;;;0.43;0.43;;;;;;;5.15;100.00;97418.31;5036211;28;20129;-58
2024/02/26 04:30:17;;;;;;;0.50;0.50;;;;;;;5.22;100.00;97423.41;5033396;28;20042;-58
2024/02/26 04:32:44;;;;;;;0.50;0.50;;;;;;;5.27;100.00;97418.16;5027071;28;20671;-58
2024/02/26 04:35:12;;;;;;;0.50;0.50;;;;;;;5.22;100.00;97415.44;5031615;28;20072;-58
2024/02/26 04:37:38;;;;;;;0.40;0.40;;;;;;;5.19;100.00;97416.72;5033103;28;20102;-58
2024/02/26 04:40:08;;;;;;;0.40;0.40;;;;;;;5.23;100.00;97417.84;5027511;28;20076;-57
2024/02/26 04:42:36;;;;;;;0.40;0.40;;;;;;;5.00;100.00;97412.84;5029412;28;20049;-58
2024/02/26 04:45:04;;;;;;;0.40;0.40;;;;;;;5.05;100.00;97418.22;5035608;28;20111;-59
2024/02/26 04:47:31;;;;;;;0.40;0.40;;;;;;;5.09;100.00;97419.28;5034930;28;20045;-58
2024/02/26 04:49:58;;;;;;;0.40;0.40;;;;;;;5.19;100.00;97417.56;5028073;28;20518;-58
2024/02/26 04:52:25;;;;;;;0.47;0.47;;;;;;;5.19;100.00;97422.88;5033452;28;20165;-58
2024/02/26 04:54:52;;;;;;;0.30;0.30;;;;;;;5.11;100.00;97425.16;5035735;28;20120;-59
2024/02/26 04:57:22;;;;;;;0.40;0.40;;;;;;;5.24;100.00;97427.44;5029066;28;20045;-58
2024/02/26 04:59:49;;;;;;;0.50;0.50;;;;;;;5.13;100.00;97428.38;5034916;28;20049;-59
2024/02/26 05:02:16;;;;;;;0.40;0.40;;;;;;;5.25;100.00;97431.69;5023354;28;20041;-59
2024/02/26 05:04:43;;;;;;;0.35;0.35;;;;;;;5.34;100.00;97424.88;5021825;28;20428;-58
2024/02/26 05:07:10;;;;;;;0.40;0.40;;;;;;;5.21;100.00;97427.91;5028280;28;20071;-58
2024/02/26 05:09:37;;;;;;;0.40;0.40;;;;;;;5.20;100.00;97428.97;5032097;28;20044;-58
2024/02/26 05:12:05;;;;;;;0.47;0.47;;;;;;;5.17;100.00;97424.16;5030359;28;20486;-58
2024/02/26 05:14:33;;;;;;;0.30;0.30;;;;;;;5.23;100.00;97425.81;5029481;28;20099;-58
2024/02/26 05:17:01;;;;;;;0.30;0.30;;;;;;;5.20;100.00;97423.66;5029614;28;20038;-58
2024/02/26 05:19:28;;;;;;;0.45;0.45;;;;;;;5.33;100.00;97423.25;5032132;28;20352;-58
2024/02/26 05:21:55;;;;;;;0.40;0.40;;;;;;;5.38;100.00;97419.84;5032053;28;20060;-58
2024/02/26 05:24:22;;;;;;;0.38;0.38;;;;;;;5.18;100.00;97428.41;5032846;28;20048;-59
2024/02/26 05:26:49;;;;;;;0.40;0.40;;;;;;;5.30;100.00;97428.28;5039565;28;20272;-58
2024/02/26 05:29:16;;;;;;;0.50;0.50;;;;;;;5.35;100.00;97426.44;5040103;28;20136;-58
2024/02/26 05:31:44;;;;;;;0.40;0.40;;;;;;;5.37;100.00;97421.69;5023731;28;20567;-58
2024/02/26 05:34:11;;;;;;;0.40;0.40;;;;;;;5.28;100.00;97425.84;5023221;28;20069;-58
2024/02/26 05:36:39;;;;;;;0.43;0.43;;;;;;;5.31;100.00;97425.34;5030661;28;20194;-59
2024/02/26 05:39:06;;;;;;;0.40;0.40;;;;;;;5.24;100.00;97424.78;5031441;28;20060;-59
2024/02/26 05:41:33;;;;;;;0.40;0.40;;;;;;;5.30;100.00;97422.97;5031396;28;20057;-58
2024/02/26 05:44:00;;;;;;;0.40;0.40;;;;;;;5.39;100.00;97430.22;5030557;28;20073;-58
2024/02/26 05:46:27;;;;;;;0.40;0.40;;;;;;;5.20;100.00;97423.66;5034325;28;20052;-58
2024/02/26 05:48:56;;;;;;;0.50;0.50;;;;;;;5.32;100.00;97423.50;5038510;28;20132;-58
2024/02/26 05:51:23;;;;;;;0.35;0.35;;;;;;;5.21;100.00;97427.13;5026993;28;20484;-58
2024/02/26 05:53:53;;;;;;;0.40;0.40;;;;;;;5.09;100.00;97432.56;5026565;28;20053;-59
2024/02/26 05:56:21;;;;;;;0.40;0.40;;;;;;;5.11;100.00;97441.09;5029380;28;20128;-59
2024/02/26 05:58:51;;;;;;;0.40;0.40;;;;;;;5.08;100.00;97434.44;5029210;28;20080;-59
2024/02/26 06:01:18;;;;;;;0.40;0.40;;;;;;;5.19;100.00;97445.94;5026172;28;20045;-58
2024/02/26 06:03:45;;;;;;;0.40;0.40;;;;;;;5.05;100.00;97436.81;5030432;28;20472;-58
2024/02/26 06:06:15;;;;;;;0.40;0.40;;;;;;;5.00;100.00;97440.19;5028560;28;20037;-58
2024/02/26 06:08:42;;;;;;;0.40;0.40;;;;;;;4.92;100.00;97446.75;5033286;28;20045;-58
2024/02/26 06:11:09;;;;;;;0.40;0.40;;;;;;;4.97;100.00;97440.72;5026485;28;20133;-59
2024/02/26 06:13:36;;;;;;;0.40;0.40;;;;;;;4.98;100.00;97456.38;5034298;28;20049;-59
2024/02/26 06:16:03;;;;;;;0.30;0.30;;;;;;;4.94;100.00;97452.63;5027559;28;20037;-59
2024/02/26 06:18:30;;;;;;;0.43;0.43;;;;;;;5.06;100.00;97460.44;5024827;28;20045;-59
2024/02/26 06:20:57;;;;;;;0.30;0.30;;;;;;;4.82;100.00;97470.53;5037127;28;20135;-59
2024/02/26 06:23:26;;;;;;;0.40;0.40;;;;;;;5.02;100.00;97463.81;5028288;28;20168;-58
2024/02/26 06:25:53;;;;;;;0.30;0.30;;;;;;;5.22;100.00;97469.38;5027378;28;20553;-59
2024/02/26 06:28:20;;;;;;;0.50;0.50;;;;;;;5.27;100.00;97474.72;5033919;28;20131;-59
2024/02/26 06:30:47;;;;;;;0.40;0.40;;;;;;;5.29;100.00;97474.47;5037167;28;20048;-59
2024/02/26 06:33:14;;;;;;;0.50;0.50;;;;;;;5.31;100.00;97475.81;5031848;28;20099;-59
2024/02/26 06:35:41;;;;;;;0.40;0.40;;;;;;;5.30;100.00;97482.19;5023724;28;20120;-58
2024/02/26 06:38:09;;;;;;;0.50;0.50;;;;;;;5.26;100.00;97481.09;5029428;28;20057;-59
2024/02/26 06:40:38;;;;;;;0.40;0.40;;;;;;;5.44;100.00;97482.56;5032963;28;20040;-59
2024/02/26 06:43:05;;;;;;;0.45;0.45;;;;;;;5.37;100.00;97482.81;5033188;28;20132;-58
2024/02/26 06:45:33;;;;;;;0.47;0.47;;;;;;;5.10;100.00;97487.31;5033871;28;20041;-59
2024/02/26 06:48:00;;;;;;;0.40;0.40;;;;;;;5.21;100.00;97489.00;5035328;28;20041;-59
2024/02/26 06:50:27;;;;;;;0.40;0.40;;;;;;;5.37;100.00;97492.63;5029803;28;20037;-59
2024/02/26 06:52:55;;;;;;;0.40;0.40;;;;;;;5.29;100.00;97493.88;5023697;28;20138;-59
2024/02/26 06:55:22;;;;;;;0.40;0.40;;;;;;;5.24;100.00;97503.63;5030061;28;20703;-59
2024/02/26 06:57:50;;;;;;;0.47;0.47;;;;;;;5.14;100.00;97502.50;5024608;28;20113;-59
2024/02/26 07:00:18;;;;;;;0.30;0.30;;;;;;;5.22;100.00;97498.59;5027825;28;20499;-59
2024/02/26 07:02:45;;;;;;;0.43;0.43;;;;;;;5.06;100.00;97507.44;5023041;28;20057;-57
2024/02/26 07:05:12;;;;;;;0.43;0.43;;;;;;;5.18;100.00;97514.22;5030058;28;20049;-59
2024/02/26 07:07:40;;;;;;;0.40;0.40;;;;;;;5.13;100.00;97514.16;5031885;28;20140;-59
2024/02/26 07:10:08;;;;;;;0.50;0.50;;;;;;;5.22;100.00;97516.34;5039558;28;20045;-59
2024/02/26 07:12:35;;;;;;;0.47;0.47;;;;;;;5.22;100.00;97522.50;5036745;28;20084;-59
2024/02/26 07:15:04;;;;;;;0.40;0.40;;;;;;;5.15;100.00;97513.91;5035246;28;20048;-59
2024/02/26 07:17:33;;;;;;;0.43;0.43;;;;;;;5.21;100.00;97515.56;5030339;28;20061;-59
2024/02/26 07:20:00;;;;;;;0.43;0.43;;;;;;;5.07;100.00;97514.38;5036443;28;20037;-60
2024/02/26 07:22:27;;;;;;;0.55;0.55;;;;;;;5.11;100.00;97520.75;5030896;28;20042;-59
2024/02/26 07:24:54;;;;;;;0.40;0.40;;;;;;;5.13;100.00;97532.75;5036116;28;20159;-57
2024/02/26 07:27:21;;;;;;;0.50;0.50;;;;;;;5.12;100.00;97523.19;5032551;28;20151;-58
2024/02/26 07:29:49;;;;;;;0.40;0.40;;;;;;;5.24;100.00;97533.69;5037239;28;20041;-58
2024/02/26 07:32:17;;;;;;;0.40;0.40;;;;;;;5.11;100.00;97534.84;5037065;28;20045;-58
2024/02/26 07:34:44;;;;;;;0.50;0.50;;;;;;;5.08;100.00;97532.69;5029146;28;20416;-58
2024/02/26 07:37:11;;;;;;;0.40;0.40;;;;;;;5.43;100.00;97533.34;5035580;28;20052;-58
2024/02/26 07:39:38;;;;;;;0.43;0.43;;;;;;;5.19;100.00;97525.63;5034284;28;20088;-59
2024/02/26 07:42:06;;;;;;;0.50;0.50;;;;;;;5.44;100.00;97521.63;5035887;28;20055;-59
2024/02/26 07:44:36;;;;;;;0.55;0.55;;;;;;;5.50;100.00;97529.41;5044187;28;20491;-59
2024/02/26 07:47:03;;;;;;;0.30;0.30;;;;;;;5.33;100.00;97536.69;5033788;28;20629;-58
2024/02/26 07:49:32;;;;;;;0.50;0.50;;;;;;;5.27;100.00;97535.81;5033959;28;20496;-59
2024/02/26 07:51:59;;;;;;;0.52;0.52;;;;;;;5.29;100.00;97538.22;5028551;28;20055;-59
2024/02/26 07:54:26;;;;;;;0.47;0.47;;;;;;;5.30;100.00;97547.81;5031674;28;20141;-59
2024/02/26 07:56:52;;;;;;;0.60;0.60;;;;;;;5.43;100.00;97546.63;5031009;28;20132;-59
2024/02/26 07:59:20;;;;;;;0.38;0.38;;;;;;;5.59;100.00;97549.19;5031412;28;20049;-58
2024/02/26 08:01:51;;;;;;;0.30;0.30;;;;;;;5.47;100.00;97558.34;5032605;28;20041;-59
2024/02/26 08:04:22;;;;;;;0.50;0.50;;;;;;;5.48;100.00;97563.41;5028832;28;20411;-59
2024/02/26 08:06:51;;;;;;;0.40;0.40;;;;;;;5.71;100.00;97567.63;5045089;28;20045;-59
2024/02/26 08:09:18;;;;;;;0.40;0.40;;;;;;;5.66;100.00;97562.25;5032630;28;20073;-59
2024/02/26 08:11:45;;;;;;;0.40;0.40;;;;;;;5.72;100.00;97563.91;5032489;28;20419;-59
2024/02/26 08:14:12;;;;;;;0.38;0.38;;;;;;;5.78;100.00;97560.25;5036322;28;20037;-59
2024/02/26 08:16:39;;;;;;;0.35;0.35;;;;;;;5.91;100.00;97567.00;5031966;28;20144;-59
2024/02/26 08:19:06;;;;;;;0.40;0.40;;;;;;;5.79;100.00;97575.16;5038937;28;20068;-60
2024/02/26 08:21:33;;;;;;;0.40;0.40;;;;;;;5.43;100.00;97570.53;5034481;28;20037;-59
2024/02/26 08:24:01;;;;;;;0.40;0.40;;;;;;;5.54;100.00;97580.19;5034919;28;20045;-59
2024/02/26 08:26:27;;;;;;;0.40;0.40;;;;;;;5.63;100.00;97592.00;5035730;28;20068;-59
2024/02/26 08:28:58;;;;;;;0.50;0.50;;;;;;;5.63;100.00;97586.69;5034327;28;20060;-59
2024/02/26 08:31:25;;;;;;;0.47;0.47;;;;;;;5.75;100.00;97591.84;5037595;28;20032;-59
2024/02/26 08:33:55;;;;;;;0.40;0.40;;;;;;;5.83;100.00;97592.19;5026391;28;20045;-59
2024/02/26 08:36:22;;;;;;;0.30;0.30;;;;;;;5.90;100.00;97599.19;5035272;28;20106;-59
2024/02/26 08:38:49;;;;;;;0.40;0.40;;;;;;;5.72;100.00;97601.13;5015199;28;20407;-59
2024/02/26 08:41:17;;;;;;;0.40;0.40;;;;;;;6.00;100.00;97604.63;5028205;28;20036;-59
2024/02/26 08:43:44;;;;;;;0.47;0.47;;;;;;;5.87;100.00;97605.81;5026569;28;20057;-59
2024/02/26 08:46:13;;;;;;;0.35;0.35;;;;;;;5.96;100.00;97612.28;5032299;28;20045;-59
2024/02/26 08:48:40;;;;;;;0.32;0.32;;;;;;;6.03;100.00;97606.78;5032560;28;20049;-59
2024/02/26 08:51:08;;;;;;;0.40;0.40;;;;;;;5.97;100.00;97605.94;5031925;28;20046;-59
2024/02/26 08:53:35;;;;;;;0.47;0.47;;;;;;;6.13;100.00;97606.06;5031455;28;20172;-59
2024/02/26 08:56:02;;;;;;;0.32;0.32;;;;;;;6.23;100.00;97606.94;5029426;28;20118;-59
2024/02/26 08:58:30;;;;;;;0.35;0.35;;;;;;;5.90;100.00;97607.94;5030350;28;20038;-59
2024/02/26 09:00:57;;;;;;;0.43;0.43;;;;;;;6.12;100.00;97617.75;5031328;28;20049;-59
2024/02/26 09:03:24;;;;;;;0.30;0.30;;;;;;;5.90;100.00;97615.13;5036424;28;20056;-59
2024/02/26 09:05:51;;;;;;;0.40;0.40;;;;;;;5.97;100.00;97629.06;5032213;28;20045;-59
2024/02/26 09:08:18;;;;;;;0.40;0.40;;;;;;;5.87;100.00;97628.94;5034012;28;20040;-59
2024/02/26 09:10:45;;;;;;;0.40;0.40;;;;;;;5.94;100.00;97621.56;5012160;28;20068;-59
2024/02/26 09:13:12;;;;;;;0.30;0.30;;;;;;;6.04;100.00;97629.63;5029184;28;20549;-59
2024/02/26 09:15:40;;;;;;;0.40;0.40;;;;;;;5.96;100.00;97630.09;5026001;28;20171;-60
2024/02/26 09:18:07;;;;;;;0.40;0.40;;;;;;;5.96;100.00;97622.13;5035497;28;20044;-59
2024/02/26 09:20:34;;;;;;;0.40;0.40;;;;;;;6.19;100.00;97628.97;5028849;28;20120;-59
2024/02/26 09:23:02;;;;;;;0.30;0.30;;;;;;;6.19;100.00;97632.47;5027785;28;20055;-58
2024/02/26 09:25:29;;;;;;;0.50;0.50;;;;;;;6.11;100.00;97640.88;5026377;28;20130;-59
2024/02/26 09:27:56;;;;;;;0.40;0.40;;;;;;;6.37;100.00;97643.78;5015446;28;20060;-59
2024/02/26 09:30:23;;;;;;;0.47;0.47;;;;;;;6.30;100.00;97638.66;5021159;28;20041;-59
2024/02/26 09:32:52;;;;;;;0.20;0.20;;;;;;;6.27;100.00;97639.19;5016690;28;20776;-59
2024/02/26 09:35:19;;;;;;;0.40;0.40;;;;;;;6.29;100.00;97642.41;5024824;28;20045;-58
2024/02/26 09:37:46;;;;;;;0.40;0.40;;;;;;;6.51;100.00;97642.28;5027592;28;20045;-59
2024/02/26 09:40:13;;;;;;;0.40;0.40;;;;;;;6.66;100.00;97642.41;5037479;28;20497;-59
2024/02/26 09:42:43;;;;;;;0.40;0.40;;;;;;;6.96;100.00;97648.97;5026797;28;20141;-59
2024/02/26 09:45:13;;;;;;;0.50;0.50;;;;;;;7.29;100.00;97649.72;5023508;28;20645;-59
2024/02/26 09:47:40;;;;;;;0.30;0.30;;;;;;;7.21;100.00;97647.50;5024949;28;20546;-59
2024/02/26 09:50:09;;;;;;;0.40;0.40;;;;;;;7.11;100.00;97648.25;5027013;28;20132;-59
2024/02/26 09:52:36;;;;;;;0.40;0.40;;;;;;;6.75;100.00;97650.72;5034556;28;20049;-59
2024/02/26 09:55:04;;;;;;;0.40;0.40;;;;;;;6.98;100.00;97654.84;5031127;28;20156;-59
2024/02/26 09:57:31;;;;;;;0.30;0.30;;;;;;;6.82;100.00;97653.97;5031602;28;20041;-59
2024/02/26 10:00:01;;;;;;;0.40;0.40;;;;;;;6.85;100.00;97650.78;5030910;28;20057;-59
2024/02/26 10:02:28;;;;;;;;;;;;;;;7.08;100.00;97662.91;5029491;28;20767;-59
2024/02/26 10:04:57;;;;;;;0.40;0.40;;;;;;;6.80;100.00;97658.75;5022168;28;19948;-59
2024/02/26 10:07:25;;;;;;;0.43;0.43;;;;;;;6.65;100.00;97656.78;5035550;28;20060;-58
2024/02/26 10:09:52;;;;;;;0.40;0.40;;;;;;;6.91;100.00;97670.25;5035636;28;20650;-59
2024/02/26 10:12:19;;;;;;;0.40;0.40;;;;;;;6.78;100.00;97668.84;5030234;28;20041;-59
2024/02/26 10:14:46;;;;;;;0.32;0.32;;;;;;;6.57;100.00;97673.22;5033191;28;20037;-58
2024/02/26 10:17:14;;;;;;;0.38;0.38;;;;;;;6.32;100.00;97688.97;5032320;28;20456;-58
2024/02/26 10:19:41;;;;;;;0.38;0.38;;;;;;;6.36;100.00;97684.75;5029037;28;20049;-59
2024/02/26 10:22:08;;;;;;;0.40;0.40;;;;;;;6.24;100.00;97692.88;5026201;28;20348;-59
2024/02/26 10:24:36;;;;;;;0.40;0.40;;;;;;;6.32;100.00;97688.97;5044983;28;20578;-59
2024/02/26 10:27:04;;;;;;;0.40;0.40;;;;;;;6.44;100.00;97694.91;5035034;28;20902;-58
2024/02/26 10:29:31;;;;;;;0.40;0.40;;;;;;;6.33;100.00;97695.91;5033551;28;20045;-59
2024/02/26 10:31:59;;;;;;;0.52;0.52;;;;;;;6.38;100.00;97701.25;5033273;28;20049;-59
2024/02/26 10:34:26;;;;;;;0.40;0.40;;;;;;;6.32;100.00;97708.41;5032767;28;20048;-58
2024/02/26 10:36:54;;;;;;;0.40;0.40;;;;;;;6.39;100.00;97710.84;5027156;28;20048;-59
2024/02/26 10:39:21;;;;;;;0.40;0.40;;;;;;;6.38;100.00;97714.56;5035599;28;20140;-58
2024/02/26 10:41:49;;;;;;;0.38;0.38;;;;;;;6.40;100.00;97709.81;5032484;28;20875;-59
2024/02/26 10:44:16;;;;;;;0.38;0.38;;;;;;;6.52;100.00;97721.09;5031311;28;20937;-60
2024/02/26 10:46:44;;;;;;;0.40;0.40;;;;;;;6.36;100.00;97722.78;5034521;28;20067;-59
2024/02/26 10:49:18;;;;;;;0.40;0.40;;;;;;;6.51;100.00;97726.66;5036153;28;20164;-60
2024/02/26 10:51:45;;;;;;;0.40;0.40;;;;;;;6.40;100.00;97720.44;5030631;28;20056;-59
2024/02/26 10:54:15;;;;;;;0.40;0.40;;;;;;;6.52;100.00;97730.94;5034411;28;20037;-60
2024/02/26 10:56:43;;;;;;;0.30;0.30;;;;;;;6.46;100.00;97735.41;5038632;28;20380;-60
2024/02/26 10:59:12;;;;;;;0.35;0.35;;;;;;;6.46;100.00;97730.91;5033700;28;20515;-59
2024/02/26 11:01:40;;;;;;;0.40;0.40;;;;;;;6.38;100.00;97728.66;5031953;28;20717;-59
2024/02/26 11:04:07;;;;;;;0.30;0.30;;;;;;;6.61;100.00;97746.19;5036006;28;20052;-59
2024/02/26 11:06:35;;;;;;;0.40;0.40;;;;;;;6.70;100.00;97742.00;5039246;28;20048;-59
2024/02/26 11:09:03;;;;;;;0.50;0.50;;;;;;;6.58;100.00;97746.69;5033842;28;20049;-59
2024/02/26 11:11:30;;;;;;;0.40;0.40;;;;;;;6.61;100.00;97748.84;5031479;28;20052;-58
2024/02/26 11:13:58;;;;;;;0.28;0.28;;;;;;;6.41;100.00;97752.13;5034057;28;20067;-59
2024/02/26 11:16:26;;;;;;;0.40;0.40;;;;;;;6.46;100.00;97752.19;5034288;28;20049;-59
2024/02/26 11:18:55;;;;;;;0.40;0.40;;;;;;;6.72;100.00;97754.28;5037236;28;20095;-59
2024/02/26 11:21:27;;;;;;;0.30;0.30;;;;;;;6.68;100.00;97753.97;5037223;28;20053;-60
2024/02/26 11:23:54;;;;;;;0.40;0.40;;;;;;;6.33;100.00;97759.75;5029087;28;20053;-59
2024/02/26 11:26:21;;;;;;;0.40;0.40;;;;;;;6.48;100.00;97760.69;5038262;28;20045;-59
2024/02/26 11:28:48;;;;;;;0.30;0.30;;;;;;;6.55;100.00;97762.38;5044033;28;20151;-59
2024/02/26 11:31:16;;;;;;;0.43;0.43;;;;;;;6.51;100.00;97756.72;5050116;28;20575;-62
2024/02/26 11:33:44;;;;;;;0.32;0.32;;;;;;;6.63;100.00;97754.72;5036163;28;20049;-59
2024/02/26 11:36:13;;;;;;;0.32;0.32;;;;;;;6.57;100.00;97757.59;5028469;28;20152;-59